Mount Sidney, VA

8:41 PM EDT on September 30, 2016 (GMT -0400)
Shenandoah Valley Regional | | Change Station

Elev 1201 ft 38.26 °N, 78.90 °W | Updated 6 minutes ago

Rain
Rain
57 °F
Feels Like 57 °F
N
5
Wind Variable Wind from NNW

Today
High -- | Low -- °F
--% Chance of Precip.
Yesterday
High -- | Low -- °F
Precip. -- in
Pressure 30.13 in
Visibility 7.0 miles
Clouds Scattered Clouds 1000 ft
Mostly Cloudy 2000 ft
Overcast 2600 ft
Dew Point 57 °F
Humidity 97%
Rainfall 1.45 in
Snow Depth Not available.
7:10 AM 6:59 PM
New Moon, 0% visible
METAR KSHD 010035Z AUTO 34004KT 7SM RA SCT010 BKN020 OVC026 14/14 A3013 RMK AO2 LTG DSNT SE P0009 T01410137
Pressure 30.13 in
Visibility 7.0 miles
Clouds Scattered Clouds 1000 ft
Mostly Cloudy 2000 ft
Overcast 2600 ft
Dew Point 57 °F
Humidity 97%
Rainfall 1.45 in
Snow Depth Not available.
7:10 AM 6:59 PM
New Moon, 0% visible
METAR KSHD 010035Z AUTO 34004KT 7SM RA SCT010 BKN020 OVC026 14/14 A3013 RMK AO2 LTG DSNT SE P0009 T01410137

10-Day Weather Forecast

Almanac

Astronomy

Sep. 30, 2016 Rise Set
Actual Time
Civil Twilight
Nautical Twilight
Astronomical Twilight
Moon
Length of Visible Light
Length of Day
Tomorrow will be .
, % of the Moon is Illuminated

Today's Extremes

State Highs State Lows

Community

WunderPhotos

Upload Photos

1,942,838 photos uploaded!

WunderBlog® & News

Nearby

Air Quality

  Air Quality AQ Index Pollutant
Not available.

Snow Depth

Station Depth Elevation

Earthquake Activity

City Distance Mag. Time & Date
Minimum magnitude displayed is 2.5.

Coastal Water Temperatures

Place Temperature

Stations

Nearby Weather Stations

Station Location Temp. Windchill Dew Point Humidity Wind Precip. Elev Updated Type
                   

Watches & Warnings

There are currently no watches in effect.